Etusivu
METAR-TAF:

METAR-TAF

Lentoasemat :

St. George Municipal Airport

St. George, Utah, Yhdysvallat

Leveyspiiri: 37-05N, Pituuspiiri: 113-36W, korkeus merenpinnasta: 896 m

Tämänhetkinen sää

Tämä raportti tehtiin 56 minuuttia sitten, kello 11.56 UTC
Tuuli 4 kn kaakosta
Lämpötila 1°C
Kosteus 86%
Ilmanpaine 1025 hPa
Näkyvyys: 16.1 km
selkeää

METAR: KSGU 231156Z AUTO 14004KT 10SM CLR 01/M01 A3027 RMK AO2 SLP250 T00061011 10056 20006 51007 FZRANO

Aika: 05:52 (12:52 UTC)

Sääennuste

Tämä raportti tehtiin 58 minuuttia sitten, kello 11.54 UTC
Ennuste voimassa 23. päivästä klo 12 UTC - 24. päivään klo 12 UTC
Tuuli 4 kn eri suunnista
Näkyvyys: 10 km
Hajanaisia pilviä 20000 ft:n korkeudessa

TAF: KSGU 231154Z 2312/2412 VRB04KT P6SM SCT200

Säähavainnot ja -ennusteet yli 4000 lentoasemalta (METAR- ja TAF-raportit).

Käytössä olevat sääasemat on merkitty karttaan keltaisilla ja punaisilla pisteillä.

Aseta hiiri pisteen päälle nähdäksesi sääaseman nimen.

Klikkaa sitten nähdäksesi säähavainnot ja -ennusteet.

Kartan vaihtaminen: klikkaa mustalla rastilla varustettuja vihreitä pisteitä, niin voit zoomata sisään; viivalla varustettua vihreää pistettä, niin voit zoomata ulos tai vihreitä nuolia, niin pääset viereisille kartoille.


METAR-TAF: